« Back
NWS Peachtree City, Ga » Text Product » ATL Terminal Aerodrome Forecast


Printer-friendly Version
Current Version              Previous Versions:   1  2  3  4  5  6  7  8  9  

Terminal Aerodrome Forecast

194
FTUS42 KFFC 280523
TAFATL
TAF
KATL 280523Z 2806/2912 08008KT P6SM FEW080
     FM281400 09008KT P6SM SCT045
     FM281900 07010KT P6SM SCT060
     FM290100 08005KT P6SM SCT250=



USA.gov is the U.S. government's official web portal to all federal, state and local government web resources and services.